createdAt,value
2019-03-05T00:00:55.800Z,4.90
2019-03-05T00:03:23.917Z,5.23
2019-03-05T00:05:52.500Z,5.37
2019-03-05T00:08:20.578Z,5.20
2019-03-05T00:10:48.639Z,6.00
2019-03-05T00:13:17.708Z,5.97
2019-03-05T00:15:47.669Z,5.00
2019-03-05T00:18:16.013Z,5.30
2019-03-05T00:20:44.633Z,4.90
2019-03-05T00:23:18.187Z,5.77
2019-03-05T00:25:46.399Z,5.67
2019-03-05T00:28:34.794Z,5.60
2019-03-05T00:31:19.956Z,5.40
2019-03-05T00:34:42.637Z,3.83
2019-03-05T00:37:41.998Z,3.77
2019-03-05T00:40:39.919Z,4.40
2019-03-05T00:43:19.712Z,3.47
2019-03-05T00:46:18.264Z,2.63
2019-03-05T00:49:35.426Z,2.47
2019-03-05T00:53:19.193Z,2.67
2019-03-05T00:56:34.898Z,2.60
2019-03-05T00:59:56.655Z,3.50
2019-03-05T01:03:00.359Z,5.10
2019-03-05T01:06:21.984Z,7.40
2019-03-05T01:08:50.889Z,6.57
2019-03-05T01:11:21.167Z,7.60
2019-03-05T01:13:49.243Z,7.17
2019-03-05T01:16:19.601Z,7.50
2019-03-05T01:18:48.074Z,8.40
2019-03-05T01:21:16.330Z,5.90
2019-03-05T01:23:44.638Z,4.30
2019-03-05T01:26:13.208Z,3.50
2019-03-05T01:28:41.296Z,2.60
2019-03-05T01:31:29.033Z,2.53
2019-03-05T01:34:03.104Z,2.30
2019-03-05T01:36:33.777Z,2.17
2019-03-05T01:39:20.095Z,2.93
2019-03-05T01:41:48.352Z,2.97
2019-03-05T01:44:16.577Z,2.80
2019-03-05T01:46:44.663Z,3.60
2019-03-05T01:49:12.883Z,3.60
2019-03-05T01:51:40.968Z,3.73
2019-03-05T01:54:09.018Z,4.83
2019-03-05T01:56:37.214Z,4.57
2019-03-05T01:59:05.306Z,5.30
2019-03-05T02:01:33.638Z,4.77
2019-03-05T02:04:02.279Z,4.20
2019-03-05T02:06:30.350Z,4.83
2019-03-05T02:08:58.579Z,4.70
2019-03-05T02:11:27.010Z,4.40
2019-03-05T02:13:55.191Z,5.50
2019-03-05T02:16:23.773Z,6.40
2019-03-05T02:19:09.507Z,5.37
2019-03-05T02:21:37.602Z,5.53
2019-03-05T02:25:21.881Z,6.43
2019-03-05T02:28:39.974Z,4.70
2019-03-05T02:31:59.206Z,5.30
2019-03-05T02:34:56.174Z,5.73
2019-03-05T02:38:35.233Z,5.00
2019-03-05T02:41:51.135Z,5.57
2019-03-05T02:45:04.402Z,5.07
2019-03-05T02:48:41.580Z,6.53
2019-03-05T02:52:07.893Z,5.03
2019-03-05T02:55:23.151Z,4.00
2019-03-05T02:57:49.746Z,4.50
2019-03-05T03:00:25.786Z,3.60
2019-03-05T03:03:00.823Z,3.20
2019-03-05T03:05:48.923Z,3.03
2019-03-05T03:08:17.052Z,3.23
2019-03-05T03:10:45.135Z,2.93
2019-03-05T03:13:13.274Z,3.07
2019-03-05T03:15:41.357Z,2.87
2019-03-05T03:18:09.502Z,2.53
2019-03-05T03:20:38.430Z,2.30
2019-03-05T03:23:06.646Z,2.40
2019-03-05T03:25:34.914Z,1.40
2019-03-05T03:28:03.105Z,2.60
2019-03-05T03:30:31.198Z,1.80
2019-03-05T03:32:59.449Z,1.67
2019-03-05T03:35:27.566Z,2.53
2019-03-05T03:37:55.674Z,2.33
2019-03-05T03:40:24.541Z,2.30
2019-03-05T03:42:53.358Z,2.30
2019-03-05T03:45:23.634Z,2.13
2019-03-05T03:47:51.729Z,2.40
2019-03-05T03:50:19.843Z,2.57
2019-03-05T03:52:48.081Z,2.40
2019-03-05T03:55:16.916Z,2.50
2019-03-05T03:57:45.542Z,2.17
2019-03-05T04:00:17.471Z,2.50
2019-03-05T04:02:45.574Z,2.17
2019-03-05T04:05:13.793Z,2.30
2019-03-05T04:07:41.888Z,2.63
2019-03-05T04:10:10.373Z,2.17
2019-03-05T04:12:38.504Z,2.23
2019-03-05T04:15:09.690Z,2.70
2019-03-05T04:17:37.859Z,2.37
2019-03-05T04:20:08.359Z,2.40
2019-03-05T04:22:36.622Z,2.27
2019-03-05T04:25:05.917Z,2.40
2019-03-05T04:27:34.259Z,2.57
2019-03-05T04:30:02.774Z,2.63
2019-03-05T04:32:30.956Z,2.77
2019-03-05T04:34:59.158Z,2.30
2019-03-05T04:37:27.245Z,2.67
2019-03-05T04:39:55.648Z,2.90
2019-03-05T04:42:23.977Z,2.80
2019-03-05T04:44:58.155Z,3.60
2019-03-05T04:47:26.647Z,3.03
2019-03-05T04:50:17.439Z,2.73
2019-03-05T04:52:45.611Z,2.33
2019-03-05T04:55:14.010Z,2.53
2019-03-05T04:57:42.254Z,3.00
2019-03-05T05:00:13.705Z,2.07
2019-03-05T05:02:41.817Z,2.60
2019-03-05T05:05:10.294Z,2.17
2019-03-05T05:07:38.635Z,2.90
2019-03-05T05:10:07.369Z,2.27
2019-03-05T05:12:35.456Z,2.50
2019-03-05T05:15:05.333Z,2.67
2019-03-05T05:17:33.404Z,2.87
2019-03-05T05:20:01.546Z,3.30
2019-03-05T05:22:29.719Z,3.03
2019-03-05T05:24:58.145Z,3.53
2019-03-05T05:27:26.231Z,3.97
2019-03-05T05:29:54.452Z,4.20
2019-03-05T05:32:22.558Z,3.57
2019-03-05T05:34:50.713Z,3.53
2019-03-05T05:37:18.782Z,3.23
2019-03-05T05:40:29.631Z,2.93
2019-03-05T05:42:58.217Z,3.03
2019-03-05T05:45:33.959Z,3.03
2019-03-05T05:48:02.457Z,3.37
2019-03-05T05:50:30.548Z,4.07
2019-03-05T05:52:58.697Z,4.03
2019-03-05T05:55:26.924Z,3.57
2019-03-05T05:57:55.103Z,3.27
2019-03-05T06:00:23.206Z,3.20
2019-03-05T06:02:51.432Z,3.13
2019-03-05T06:05:19.851Z,2.67
2019-03-05T06:07:48.060Z,2.80
2019-03-05T06:10:16.199Z,2.97
2019-03-05T06:12:44.284Z,2.83
2019-03-05T06:15:12.768Z,2.60
2019-03-05T06:17:40.899Z,1.87
2019-03-05T06:20:10.361Z,1.97
2019-03-05T06:22:38.490Z,2.67
2019-03-05T06:25:07.142Z,2.60
2019-03-05T06:27:35.289Z,2.90
2019-03-05T06:30:04.300Z,3.37
2019-03-05T06:32:32.496Z,3.60
2019-03-05T06:35:01.082Z,3.23
2019-03-05T06:37:29.438Z,3.37
2019-03-05T06:39:57.549Z,2.70
2019-03-05T06:42:25.714Z,2.63
2019-03-05T06:44:54.022Z,2.40
2019-03-05T06:47:22.505Z,3.43
2019-03-05T06:49:50.649Z,2.70
2019-03-05T06:52:18.979Z,3.10
2019-03-05T06:54:47.232Z,3.27
2019-03-05T06:57:15.357Z,2.73
2019-03-05T06:59:43.800Z,3.40
2019-03-05T07:02:12.287Z,2.93
2019-03-05T07:04:40.481Z,3.07
2019-03-05T07:07:08.660Z,2.80
2019-03-05T07:10:38.531Z,2.93
2019-03-05T07:13:19.189Z,3.00
2019-03-05T07:16:23.171Z,3.33
2019-03-05T07:19:08.386Z,2.40
2019-03-05T07:22:41.462Z,2.73
2019-03-05T07:25:09.527Z,2.97
2019-03-05T07:27:41.348Z,2.80
2019-03-05T07:30:17.109Z,3.60
2019-03-05T07:32:45.458Z,3.70
2019-03-05T07:35:17.967Z,3.90
2019-03-05T07:37:46.094Z,3.40
2019-03-05T07:40:14.555Z,3.23
2019-03-05T07:42:42.816Z,3.10
2019-03-05T07:45:11.129Z,2.77
2019-03-05T07:47:39.266Z,2.50
2019-03-05T07:50:08.192Z,2.00
2019-03-05T07:52:36.346Z,2.80
2019-03-05T07:55:13.592Z,2.93
2019-03-05T07:57:37.818Z,3.03
2019-03-05T08:00:13.041Z,2.70
2019-03-05T08:02:41.143Z,3.40
2019-03-05T08:05:13.164Z,2.43
2019-03-05T08:07:41.898Z,2.80
2019-03-05T08:10:29.147Z,3.07
2019-03-05T08:13:34.839Z,3.57
2019-03-05T08:16:22.989Z,3.27
2019-03-05T08:18:51.163Z,2.57
2019-03-05T08:21:19.392Z,2.93
2019-03-05T08:23:48.458Z,3.07
2019-03-05T08:26:16.723Z,3.63
2019-03-05T08:28:44.864Z,3.33
2019-03-05T08:31:13.106Z,3.80
2019-03-05T08:33:41.263Z,3.30
2019-03-05T08:36:09.368Z,4.40
2019-03-05T08:38:37.511Z,4.33
2019-03-05T08:41:05.665Z,4.33
2019-03-05T08:43:34.734Z,4.43
2019-03-05T08:46:02.995Z,4.63
2019-03-05T08:48:32.069Z,4.67
2019-03-05T08:51:00.283Z,4.90
2019-03-05T08:53:28.354Z,4.57
2019-03-05T08:55:56.615Z,3.87
2019-03-05T08:58:24.807Z,4.77
2019-03-05T09:00:52.985Z,4.57
2019-03-05T09:03:21.146Z,4.97
2019-03-05T09:05:49.957Z,4.70
2019-03-05T09:08:18.090Z,4.93
2019-03-05T09:10:46.258Z,4.40
2019-03-05T09:13:14.340Z,5.27
2019-03-05T09:15:42.494Z,4.73
2019-03-05T09:18:10.605Z,3.53
2019-03-05T09:20:38.860Z,4.23
2019-03-05T09:23:07.030Z,4.43
2019-03-05T09:25:35.166Z,4.23
2019-03-05T09:28:03.423Z,4.13
2019-03-05T09:30:31.609Z,4.37
2019-03-05T09:32:59.923Z,3.40
2019-03-05T09:35:28.022Z,4.03
2019-03-05T09:37:56.154Z,3.17
2019-03-05T09:40:24.323Z,3.60
2019-03-05T09:42:52.404Z,3.80
2019-03-05T09:45:20.879Z,3.30
2019-03-05T09:47:49.072Z,2.87
2019-03-05T09:50:17.923Z,2.23
2019-03-05T09:52:54.420Z,3.20
2019-03-05T09:55:18.535Z,2.77
2019-03-05T09:57:52.454Z,2.83
2019-03-05T10:00:21.259Z,2.40
2019-03-05T10:02:49.339Z,2.83
2019-03-05T10:05:17.480Z,2.53
2019-03-05T10:07:45.625Z,2.57
2019-03-05T10:10:21.491Z,2.60
2019-03-05T10:12:49.641Z,2.47
2019-03-05T10:15:19.006Z,2.17
2019-03-05T10:17:49.795Z,2.57
2019-03-05T10:20:19.476Z,2.83
2019-03-05T10:22:47.943Z,2.53
2019-03-05T10:25:18.392Z,2.47
2019-03-05T10:27:46.569Z,2.57
2019-03-05T10:30:24.752Z,1.93
2019-03-05T10:32:51.327Z,2.53
2019-03-05T10:35:22.504Z,2.10
2019-03-05T10:37:51.752Z,2.20
2019-03-05T10:40:21.318Z,2.03
2019-03-05T10:42:49.579Z,2.03
2019-03-05T10:45:18.248Z,2.17
2019-03-05T10:47:48.060Z,2.10
2019-03-05T10:50:19.629Z,2.10
2019-03-05T10:52:47.736Z,2.33
2019-03-05T10:55:25.911Z,1.40
2019-03-05T10:57:46.000Z,1.77
2019-03-05T11:00:19.360Z,1.97
2019-03-05T11:02:49.866Z,1.50
2019-03-05T11:05:18.019Z,4.07
2019-03-05T11:07:46.315Z,2.43
2019-03-05T11:10:15.675Z,1.57
2019-03-05T11:12:44.144Z,1.40
2019-03-05T11:15:20.109Z,1.70
2019-03-05T11:17:48.335Z,2.20
2019-03-05T11:20:16.730Z,1.77
2019-03-05T11:22:44.950Z,1.77
2019-03-05T11:25:13.333Z,1.40
2019-03-05T11:27:42.339Z,1.63
2019-03-05T11:30:16.246Z,1.67
2019-03-05T11:32:44.427Z,1.20
2019-03-05T11:35:15.597Z,2.17
2019-03-05T11:37:43.820Z,1.20
2019-03-05T11:40:20.716Z,0.67
2019-03-05T11:42:42.238Z,1.23
2019-03-05T11:45:15.356Z,1.33
2019-03-05T11:47:43.684Z,1.43
2019-03-05T11:50:13.016Z,1.53
2019-03-05T11:52:41.484Z,1.20
2019-03-05T11:55:12.559Z,1.40
2019-03-05T11:57:40.786Z,1.60
2019-03-05T12:00:15.270Z,2.13
2019-03-05T12:02:43.485Z,1.80
2019-03-05T12:05:11.695Z,1.03
2019-03-05T12:07:39.856Z,1.40
2019-03-05T12:10:10.811Z,1.60
2019-03-05T12:12:38.905Z,1.77
2019-03-05T12:15:11.300Z,1.63
2019-03-05T12:17:39.420Z,2.40
2019-03-05T12:20:09.911Z,1.33
2019-03-05T12:22:38.060Z,1.73
2019-03-05T12:25:09.412Z,2.40
2019-03-05T12:27:37.681Z,1.43
2019-03-05T12:30:08.408Z,1.00
2019-03-05T12:32:36.626Z,1.47
2019-03-05T12:35:04.889Z,1.00
2019-03-05T12:37:32.977Z,1.13
2019-03-05T12:40:01.139Z,1.03
2019-03-05T12:42:29.171Z,1.53
2019-03-05T12:44:59.103Z,1.40
2019-03-05T12:47:27.180Z,1.40
2019-03-05T12:49:55.288Z,1.10
2019-03-05T12:52:23.424Z,1.20
2019-03-05T12:54:51.514Z,1.37
2019-03-05T12:57:19.600Z,1.27
2019-03-05T12:59:47.784Z,1.10
2019-03-05T13:02:15.982Z,1.00
2019-03-05T13:04:44.182Z,1.20
2019-03-05T13:07:14.158Z,1.33
2019-03-05T13:09:42.283Z,1.57
2019-03-05T13:12:10.491Z,1.57
2019-03-05T13:14:42.630Z,1.33
2019-03-05T13:17:08.756Z,1.27
2019-03-05T13:19:38.713Z,1.40
2019-03-05T13:22:06.835Z,1.20
2019-03-05T13:24:34.897Z,0.67
2019-03-05T13:27:03.126Z,1.27
2019-03-05T13:29:31.306Z,1.17
2019-03-05T13:31:59.510Z,0.70
2019-03-05T13:34:27.700Z,1.20
2019-03-05T13:36:56.475Z,0.70
2019-03-05T13:39:24.661Z,1.23
2019-03-05T13:41:53.867Z,1.10
2019-03-05T13:44:34.020Z,1.23
2019-03-05T13:47:05.765Z,0.80
2019-03-05T13:50:56.346Z,1.17
2019-03-05T13:54:01.112Z,1.40
2019-03-05T13:57:24.838Z,1.37
2019-03-05T13:59:52.946Z,1.30
2019-03-05T14:02:53.131Z,1.23
2019-03-05T14:06:07.547Z,1.03
2019-03-05T14:09:15.794Z,1.43
2019-03-05T14:11:45.969Z,1.27
2019-03-05T14:14:38.073Z,1.60
2019-03-05T14:17:20.200Z,1.30
2019-03-05T14:19:48.448Z,2.40
2019-03-05T14:22:17.110Z,1.80
2019-03-05T14:24:45.210Z,2.20
2019-03-05T14:27:13.460Z,1.00
2019-03-05T14:29:41.686Z,1.23
2019-03-05T14:32:10.355Z,1.30
2019-03-05T14:34:38.474Z,1.20
2019-03-05T14:37:06.554Z,1.00
2019-03-05T14:39:35.155Z,1.07
2019-03-05T14:42:06.550Z,1.23
2019-03-05T14:44:39.780Z,0.97
2019-03-05T14:47:06.037Z,0.90
2019-03-05T14:49:34.401Z,1.23
2019-03-05T14:52:03.450Z,1.10
2019-03-05T14:54:31.620Z,1.03
2019-03-05T14:57:00.065Z,1.03
2019-03-05T14:59:28.235Z,1.10
2019-03-05T15:01:56.585Z,1.20
2019-03-05T15:04:24.820Z,1.40
2019-03-05T15:06:53.004Z,1.57
2019-03-05T15:09:21.162Z,0.80
2019-03-05T15:11:49.316Z,1.03
2019-03-05T15:14:18.567Z,1.33
2019-03-05T15:16:48.400Z,1.40
2019-03-05T15:19:21.409Z,1.20
2019-03-05T15:21:46.859Z,1.33
2019-03-05T15:24:14.957Z,1.20
2019-03-05T15:26:43.202Z,1.27
2019-03-05T15:29:11.478Z,1.10
2019-03-05T15:31:41.443Z,1.23
2019-03-05T15:34:09.662Z,1.20
2019-03-05T15:36:37.737Z,1.30
2019-03-05T15:39:06.620Z,1.07
2019-03-05T15:41:34.798Z,0.90
2019-03-05T15:44:03.057Z,1.00
2019-03-05T15:46:31.322Z,1.43
2019-03-05T15:48:59.493Z,0.70
2019-03-05T15:51:27.728Z,0.87
2019-03-05T15:53:55.804Z,0.80
2019-03-05T15:56:23.970Z,0.77
2019-03-05T15:58:52.091Z,0.87
2019-03-05T16:01:22.495Z,0.80
2019-03-05T16:03:50.243Z,1.40
2019-03-05T16:06:18.974Z,0.73
2019-03-05T16:08:47.072Z,0.93
2019-03-05T16:11:15.210Z,1.03
2019-03-05T16:13:43.273Z,1.10
2019-03-05T16:16:11.496Z,1.37
2019-03-05T16:18:40.314Z,1.10
2019-03-05T16:21:08.530Z,1.70
2019-03-05T16:23:36.608Z,1.90
2019-03-05T16:26:04.733Z,1.30
2019-03-05T16:28:32.848Z,1.23
2019-03-05T16:31:21.804Z,1.90
2019-03-05T16:33:56.111Z,1.87
2019-03-05T16:36:42.736Z,1.93
2019-03-05T16:39:18.894Z,1.77
2019-03-05T16:42:06.626Z,2.87
2019-03-05T16:45:09.700Z,2.63
2019-03-05T16:47:50.225Z,2.83
2019-03-05T16:50:47.212Z,2.70
2019-03-05T16:53:22.657Z,2.20
2019-03-05T16:56:10.323Z,2.50
2019-03-05T16:59:08.144Z,6.60
2019-03-05T17:02:10.982Z,5.73
2019-03-05T17:04:57.542Z,2.30
2019-03-05T17:07:42.749Z,1.60
2019-03-05T17:10:45.817Z,1.30
2019-03-05T17:13:14.109Z,1.20
2019-03-05T17:15:42.560Z,1.80
2019-03-05T17:18:10.970Z,1.67
2019-03-05T17:20:39.943Z,1.13
2019-03-05T17:23:08.373Z,1.60
2019-03-05T17:25:36.552Z,1.77
2019-03-05T17:28:04.677Z,1.33
2019-03-05T17:30:32.760Z,1.40
2019-03-05T17:33:00.974Z,1.50
2019-03-05T17:35:29.290Z,1.90
2019-03-05T17:37:57.472Z,1.27
2019-03-05T17:40:25.535Z,1.47
2019-03-05T17:42:53.633Z,2.00
2019-03-05T17:45:22.101Z,1.30
2019-03-05T17:47:50.475Z,1.40
2019-03-05T17:50:18.590Z,1.77
2019-03-05T17:52:46.705Z,1.57
2019-03-05T17:55:24.530Z,1.50
2019-03-05T17:57:47.935Z,1.90
2019-03-05T18:00:26.478Z,1.30
2019-03-05T18:02:54.569Z,1.70
2019-03-05T18:05:22.632Z,1.83
2019-03-05T18:07:50.824Z,1.77
2019-03-05T18:10:18.960Z,1.87
2019-03-05T18:12:47.322Z,1.70
2019-03-05T18:15:16.703Z,1.50
2019-03-05T18:17:44.917Z,2.40
2019-03-05T18:20:14.087Z,2.00
2019-03-05T18:22:42.184Z,2.67
2019-03-05T18:25:10.855Z,2.47
2019-03-05T18:27:39.028Z,3.13
2019-03-05T18:30:12.383Z,2.40
2019-03-05T18:32:40.487Z,1.70
2019-03-05T18:35:09.284Z,2.03
2019-03-05T18:37:37.408Z,2.87
2019-03-05T18:40:07.667Z,1.90
2019-03-05T18:42:35.778Z,2.07
2019-03-05T18:45:20.701Z,2.23
2019-03-05T18:47:48.844Z,2.33
2019-03-05T18:50:19.234Z,2.30
2019-03-05T18:52:48.931Z,2.80
2019-03-05T18:55:18.004Z,3.20
2019-03-05T18:57:46.272Z,3.53
2019-03-05T19:00:20.574Z,3.33
2019-03-05T19:02:49.905Z,3.13
2019-03-05T19:05:17.979Z,3.07
2019-03-05T19:07:47.021Z,3.00
2019-03-05T19:10:16.712Z,2.47
2019-03-05T19:12:44.907Z,2.47
2019-03-05T19:15:19.000Z,2.20
2019-03-05T19:17:47.104Z,2.33
2019-03-05T19:20:18.305Z,2.50
2019-03-05T19:22:46.977Z,2.33
2019-03-05T19:25:18.523Z,2.03
2019-03-05T19:27:46.766Z,2.87
2019-03-05T19:30:18.717Z,2.63
2019-03-05T19:32:47.980Z,2.90
2019-03-05T19:35:16.254Z,2.80
2019-03-05T19:37:44.358Z,3.20
2019-03-05T19:40:16.180Z,3.33
2019-03-05T19:42:49.939Z,3.43
2019-03-05T19:45:18.465Z,3.07
2019-03-05T19:47:46.583Z,3.47
2019-03-05T19:50:16.415Z,3.67
2019-03-05T19:52:44.513Z,3.50
2019-03-05T19:55:15.094Z,3.63
2019-03-05T19:57:43.300Z,4.43
2019-03-05T20:00:16.832Z,5.37
2019-03-05T20:02:44.995Z,5.13
2019-03-05T20:05:15.163Z,5.37
2019-03-05T20:07:43.296Z,4.97
2019-03-05T20:10:15.006Z,5.47
2019-03-05T20:12:43.160Z,5.23
2019-03-05T20:15:14.076Z,6.07
2019-03-05T20:17:42.603Z,6.07
2019-03-05T20:20:11.032Z,5.63
2019-03-05T20:22:39.199Z,5.30
2019-03-05T20:25:11.990Z,6.43
2019-03-05T20:27:40.204Z,6.47
2019-03-05T20:30:14.094Z,5.90
2019-03-05T20:32:42.248Z,5.70
2019-03-05T20:35:10.520Z,6.53
2019-03-05T20:37:38.672Z,7.07
2019-03-05T20:40:11.176Z,6.90
2019-03-05T20:42:39.597Z,6.60
2019-03-05T20:45:12.767Z,6.57
2019-03-05T20:47:40.956Z,7.47
2019-03-05T20:50:10.610Z,6.63
2019-03-05T20:52:41.415Z,7.40
2019-03-05T20:55:12.788Z,7.27
2019-03-05T20:57:40.959Z,7.20
2019-03-05T21:00:25.272Z,7.07
2019-03-05T21:02:55.602Z,6.57
2019-03-05T21:05:26.178Z,7.03
2019-03-05T21:07:54.296Z,7.17
2019-03-05T21:10:22.380Z,6.40
2019-03-05T21:12:50.601Z,7.00
2019-03-05T21:15:18.926Z,7.20
2019-03-05T21:17:47.156Z,7.20
2019-03-05T21:20:15.458Z,7.43
2019-03-05T21:22:43.556Z,7.50
2019-03-05T21:25:12.002Z,7.47
2019-03-05T21:27:40.437Z,7.57
2019-03-05T21:30:15.795Z,7.60
2019-03-05T21:32:44.206Z,7.60
2019-03-05T21:35:12.857Z,7.80
2019-03-05T21:37:40.978Z,8.43
2019-03-05T21:40:17.374Z,7.40
2019-03-05T21:42:45.680Z,7.77
2019-03-05T21:45:24.724Z,7.40
2019-03-05T21:47:52.986Z,8.00
2019-03-05T21:50:23.170Z,7.80
2019-03-05T21:52:51.376Z,7.40
2019-03-05T21:55:19.536Z,7.27
2019-03-05T21:57:47.691Z,7.23
2019-03-05T22:00:20.049Z,7.03
2019-03-05T22:02:48.295Z,7.17
2019-03-05T22:05:16.560Z,6.87
2019-03-05T22:07:44.662Z,6.83
2019-03-05T22:10:15.566Z,7.20
2019-03-05T22:12:44.180Z,7.43
2019-03-05T22:15:15.032Z,7.30
2019-03-05T22:17:43.403Z,6.90
2019-03-05T22:20:12.460Z,7.47
2019-03-05T22:22:41.248Z,7.60
2019-03-05T22:25:12.561Z,7.80
2019-03-05T22:27:41.094Z,8.10
2019-03-05T22:30:19.795Z,7.37
2019-03-05T22:32:48.069Z,7.53
2019-03-05T22:35:17.497Z,8.20
2019-03-05T22:37:45.870Z,7.33
2019-03-05T22:40:14.552Z,7.23
2019-03-05T22:42:42.704Z,7.50
2019-03-05T22:45:16.871Z,6.77
2019-03-05T22:47:45.006Z,7.57
2019-03-05T22:50:13.720Z,7.33
2019-03-05T22:52:42.004Z,7.87
2019-03-05T22:55:10.832Z,7.77
2019-03-05T22:57:38.936Z,6.70
2019-03-05T23:00:38.697Z,6.40
2019-03-05T23:03:07.277Z,6.87
2019-03-05T23:05:35.459Z,7.03
2019-03-05T23:08:04.282Z,6.50
2019-03-05T23:10:33.075Z,5.97
2019-03-05T23:13:01.453Z,6.30
2019-03-05T23:15:29.735Z,5.90
2019-03-05T23:17:57.817Z,6.73
2019-03-05T23:20:26.258Z,6.80
2019-03-05T23:22:54.371Z,7.27
2019-03-05T23:25:22.803Z,6.00
2019-03-05T23:27:51.281Z,5.90
2019-03-05T23:30:20.382Z,6.10
2019-03-05T23:32:49.414Z,5.97
2019-03-05T23:35:17.834Z,6.00
2019-03-05T23:37:46.222Z,5.37
2019-03-05T23:40:16.394Z,5.63
2019-03-05T23:42:44.592Z,5.13
2019-03-05T23:45:13.301Z,5.30
2019-03-05T23:47:41.392Z,5.90
2019-03-05T23:50:10.296Z,6.13
2019-03-05T23:52:39.487Z,5.83
2019-03-05T23:55:07.852Z,6.33
2019-03-05T23:57:35.935Z,6.20
